sensor_id;sensor_type;location;lat;lon;timestamp;pressure;altitude;pressure_sealevel;temperature;humidity
74544;BME280;63016;55.030;38.710;2024-03-25T00:01:57;98302.78;;;6.46;61.32
74544;BME280;63016;55.030;38.710;2024-03-25T00:04:23;98312.50;;;6.43;62.05
74544;BME280;63016;55.030;38.710;2024-03-25T00:06:49;98333.84;;;6.46;61.91
74544;BME280;63016;55.030;38.710;2024-03-25T00:09:15;98323.31;;;6.47;61.63
74544;BME280;63016;55.030;38.710;2024-03-25T00:11:41;98331.88;;;6.48;61.67
74544;BME280;63016;55.030;38.710;2024-03-25T00:14:07;98336.44;;;6.46;62.41
74544;BME280;63016;55.030;38.710;2024-03-25T00:16:33;98330.19;;;6.40;62.06
74544;BME280;63016;55.030;38.710;2024-03-25T00:18:59;98325.09;;;6.47;62.13
74544;BME280;63016;55.030;38.710;2024-03-25T00:21:25;98315.44;;;6.40;61.82
74544;BME280;63016;55.030;38.710;2024-03-25T00:23:50;98324.63;;;6.43;62.07
74544;BME280;63016;55.030;38.710;2024-03-25T00:26:16;98331.78;;;6.41;62.19
74544;BME280;63016;55.030;38.710;2024-03-25T00:28:41;98345.38;;;6.43;62.22
74544;BME280;63016;55.030;38.710;2024-03-25T00:31:07;98349.13;;;6.40;62.34
74544;BME280;63016;55.030;38.710;2024-03-25T00:33:32;98352.78;;;6.46;61.55
74544;BME280;63016;55.030;38.710;2024-03-25T00:35:58;98349.41;;;6.46;62.05
74544;BME280;63016;55.030;38.710;2024-03-25T00:38:24;98353.78;;;6.45;62.51
74544;BME280;63016;55.030;38.710;2024-03-25T00:40:50;98359.75;;;6.46;61.75
74544;BME280;63016;55.030;38.710;2024-03-25T00:43:16;98359.75;;;6.46;62.19
74544;BME280;63016;55.030;38.710;2024-03-25T00:45:41;98369.13;;;6.47;61.92
74544;BME280;63016;55.030;38.710;2024-03-25T00:48:07;98365.94;;;6.44;61.61
74544;BME280;63016;55.030;38.710;2024-03-25T00:50:33;98365.13;;;6.44;62.43
74544;BME280;63016;55.030;38.710;2024-03-25T00:52:58;98363.34;;;6.44;61.91
74544;BME280;63016;55.030;38.710;2024-03-25T00:55:24;98364.06;;;6.38;62.10
74544;BME280;63016;55.030;38.710;2024-03-25T00:57:50;98366.91;;;6.43;61.83
74544;BME280;63016;55.030;38.710;2024-03-25T01:00:16;98364.66;;;6.40;62.01
74544;BME280;63016;55.030;38.710;2024-03-25T01:02:42;98370.13;;;6.46;62.30
74544;BME280;63016;55.030;38.710;2024-03-25T01:05:08;98382.09;;;6.47;62.07
74544;BME280;63016;55.030;38.710;2024-03-25T01:07:34;98376.91;;;6.47;62.51
74544;BME280;63016;55.030;38.710;2024-03-25T01:10:00;98377.91;;;6.46;62.18
74544;BME280;63016;55.030;38.710;2024-03-25T01:12:26;98394.06;;;6.48;61.92
74544;BME280;63016;55.030;38.710;2024-03-25T01:14:52;98401.69;;;6.49;62.10
74544;BME280;63016;55.030;38.710;2024-03-25T01:17:18;98399.25;;;6.48;62.02
74544;BME280;63016;55.030;38.710;2024-03-25T01:19:44;98391.31;;;6.49;61.76
74544;BME280;63016;55.030;38.710;2024-03-25T01:22:09;98395.22;;;6.45;61.95
74544;BME280;63016;55.030;38.710;2024-03-25T01:24:35;98396.50;;;6.49;62.14
74544;BME280;63016;55.030;38.710;2024-03-25T01:27:00;98404.59;;;6.46;61.88
74544;BME280;63016;55.030;38.710;2024-03-25T01:29:26;98410.78;;;6.45;61.67
74544;BME280;63016;55.030;38.710;2024-03-25T01:31:52;98413.38;;;6.45;61.51
74544;BME280;63016;55.030;38.710;2024-03-25T01:34:17;98413.56;;;6.43;61.86
74544;BME280;63016;55.030;38.710;2024-03-25T01:36:43;98412.09;;;6.41;62.10
74544;BME280;63016;55.030;38.710;2024-03-25T01:39:09;98419.69;;;6.42;62.14
74544;BME280;63016;55.030;38.710;2024-03-25T01:41:34;98423.09;;;6.43;61.78
74544;BME280;63016;55.030;38.710;2024-03-25T01:44:01;98421.47;;;6.42;61.74
74544;BME280;63016;55.030;38.710;2024-03-25T01:46:27;98428.00;;;6.38;61.59
74544;BME280;63016;55.030;38.710;2024-03-25T01:48:53;98419.41;;;6.37;62.19
74544;BME280;63016;55.030;38.710;2024-03-25T01:51:20;98426.38;;;6.37;61.52
74544;BME280;63016;55.030;38.710;2024-03-25T01:53:47;98442.56;;;6.39;62.18
74544;BME280;63016;55.030;38.710;2024-03-25T01:56:14;98461.03;;;6.36;61.77
74544;BME280;63016;55.030;38.710;2024-03-25T01:58:41;98462.03;;;6.35;61.57
74544;BME280;63016;55.030;38.710;2024-03-25T02:01:07;98467.53;;;6.32;61.87
74544;BME280;63016;55.030;38.710;2024-03-25T02:03:35;98470.13;;;6.32;62.05
74544;BME280;63016;55.030;38.710;2024-03-25T02:06:04;98475.84;;;6.27;61.64
74544;BME280;63016;55.030;38.710;2024-03-25T02:08:32;98471.97;;;6.23;61.50
74544;BME280;63016;55.030;38.710;2024-03-25T02:10:59;98475.72;;;6.21;61.42
74544;BME280;63016;55.030;38.710;2024-03-25T02:13:25;98474.78;;;6.13;61.72
74544;BME280;63016;55.030;38.710;2024-03-25T02:15:50;98485.94;;;6.14;61.75
74544;BME280;63016;55.030;38.710;2024-03-25T02:18:19;98492.47;;;6.10;61.42
74544;BME280;63016;55.030;38.710;2024-03-25T02:20:45;98487.16;;;6.03;61.54
74544;BME280;63016;55.030;38.710;2024-03-25T02:23:11;98490.59;;;5.96;61.60
74544;BME280;63016;55.030;38.710;2024-03-25T02:25:38;98492.03;;;5.98;61.65
74544;BME280;63016;55.030;38.710;2024-03-25T02:28:04;98483.00;;;5.94;61.70
74544;BME280;63016;55.030;38.710;2024-03-25T02:30:30;98493.66;;;5.91;61.30
74544;BME280;63016;55.030;38.710;2024-03-25T02:32:55;98491.59;;;5.86;61.29
74544;BME280;63016;55.030;38.710;2024-03-25T02:35:22;98494.22;;;5.78;61.04
74544;BME280;63016;55.030;38.710;2024-03-25T02:37:50;98501.66;;;5.81;61.50
74544;BME280;63016;55.030;38.710;2024-03-25T02:40:17;98497.78;;;5.77;61.39
74544;BME280;63016;55.030;38.710;2024-03-25T02:42:44;98518.66;;;5.76;61.19
74544;BME280;63016;55.030;38.710;2024-03-25T02:45:09;98504.25;;;5.73;61.50
74544;BME280;63016;55.030;38.710;2024-03-25T02:47:35;98508.50;;;5.66;61.09
74544;BME280;63016;55.030;38.710;2024-03-25T02:50:00;98513.03;;;5.64;60.77
74544;BME280;63016;55.030;38.710;2024-03-25T02:52:26;98507.22;;;5.62;61.36
74544;BME280;63016;55.030;38.710;2024-03-25T02:54:52;98520.31;;;5.60;61.23
74544;BME280;63016;55.030;38.710;2024-03-25T02:57:19;98517.09;;;5.58;61.05
74544;BME280;63016;55.030;38.710;2024-03-25T02:59:45;98509.22;;;5.52;61.53
74544;BME280;63016;55.030;38.710;2024-03-25T03:02:10;98520.00;;;5.55;61.07
74544;BME280;63016;55.030;38.710;2024-03-25T03:04:36;98528.75;;;5.54;61.22
74544;BME280;63016;55.030;38.710;2024-03-25T03:07:01;98525.69;;;5.51;61.22
74544;BME280;63016;55.030;38.710;2024-03-25T03:09:27;98536.38;;;5.48;60.99
74544;BME280;63016;55.030;38.710;2024-03-25T03:11:52;98545.94;;;5.47;61.33
74544;BME280;63016;55.030;38.710;2024-03-25T03:14:18;98556.47;;;5.37;61.11
74544;BME280;63016;55.030;38.710;2024-03-25T03:16:43;98559.19;;;5.44;61.36
74544;BME280;63016;55.030;38.710;2024-03-25T03:19:09;98577.47;;;5.43;61.48
74544;BME280;63016;55.030;38.710;2024-03-25T03:21:35;98587.50;;;5.37;61.53
74544;BME280;63016;55.030;38.710;2024-03-25T03:24:02;98577.28;;;5.36;61.50
74544;BME280;63016;55.030;38.710;2024-03-25T03:26:27;98577.16;;;5.37;61.32
74544;BME280;63016;55.030;38.710;2024-03-25T03:28:57;98580.69;;;5.36;61.43
74544;BME280;63016;55.030;38.710;2024-03-25T03:31:22;98583.13;;;5.38;61.04
74544;BME280;63016;55.030;38.710;2024-03-25T03:33:48;98578.09;;;5.36;60.98
74544;BME280;63016;55.030;38.710;2024-03-25T03:36:20;98596.69;;;5.40;61.74
74544;BME280;63016;55.030;38.710;2024-03-25T03:38:46;98606.06;;;5.41;61.20
74544;BME280;63016;55.030;38.710;2024-03-25T03:41:12;98605.25;;;5.40;61.03
74544;BME280;63016;55.030;38.710;2024-03-25T03:43:37;98605.25;;;5.40;61.42
74544;BME280;63016;55.030;38.710;2024-03-25T03:46:03;98611.41;;;5.39;61.48
74544;BME280;63016;55.030;38.710;2024-03-25T03:48:29;98615.78;;;5.39;61.10
74544;BME280;63016;55.030;38.710;2024-03-25T03:50:55;98613.00;;;5.40;61.42
74544;BME280;63016;55.030;38.710;2024-03-25T03:53:20;98614.00;;;5.39;60.93
74544;BME280;63016;55.030;38.710;2024-03-25T03:55:55;98624.03;;;5.43;61.50
74544;BME280;63016;55.030;38.710;2024-03-25T03:58:22;98618.84;;;5.43;61.27
74544;BME280;63016;55.030;38.710;2024-03-25T04:00:47;98630.00;;;5.43;61.31
74544;BME280;63016;55.030;38.710;2024-03-25T04:03:13;98637.75;;;5.43;61.43
74544;BME280;63016;55.030;38.710;2024-03-25T04:05:38;98651.31;;;5.45;61.23
74544;BME280;63016;55.030;38.710;2024-03-25T04:08:05;98652.63;;;5.41;61.42
74544;BME280;63016;55.030;38.710;2024-03-25T04:10:30;98667.81;;;5.44;61.34
74544;BME280;63016;55.030;38.710;2024-03-25T04:12:56;98663.44;;;5.45;61.20
74544;BME280;63016;55.030;38.710;2024-03-25T04:15:22;98661.84;;;5.44;61.00
74544;BME280;63016;55.030;38.710;2024-03-25T04:17:48;98664.44;;;5.44;61.25
74544;BME280;63016;55.030;38.710;2024-03-25T04:20:16;98672.84;;;5.37;61.20
74544;BME280;63016;55.030;38.710;2024-03-25T04:22:45;98681.56;;;5.36;60.98
74544;BME280;63016;55.030;38.710;2024-03-25T04:25:12;98686.72;;;5.36;60.85
74544;BME280;63016;55.030;38.710;2024-03-25T04:27:41;98677.84;;;5.39;61.08
74544;BME280;63016;55.030;38.710;2024-03-25T04:30:07;98681.41;;;5.38;61.31
74544;BME280;63016;55.030;38.710;2024-03-25T04:32:34;98684.13;;;5.36;60.64
74544;BME280;63016;55.030;38.710;2024-03-25T04:34:59;98692.06;;;5.35;61.10
74544;BME280;63016;55.030;38.710;2024-03-25T04:37:25;98696.59;;;5.33;60.80
74544;BME280;63016;55.030;38.710;2024-03-25T04:39:51;98709.53;;;5.33;61.38
74544;BME280;63016;55.030;38.710;2024-03-25T04:42:16;98695.81;;;5.32;61.06
74544;BME280;63016;55.030;38.710;2024-03-25T04:44:41;98680.59;;;5.29;61.06
74544;BME280;63016;55.030;38.710;2024-03-25T04:47:07;98693.22;;;5.32;61.30
74544;BME280;63016;55.030;38.710;2024-03-25T04:49:32;98702.59;;;5.33;61.33
74544;BME280;63016;55.030;38.710;2024-03-25T04:51:58;98701.78;;;5.33;61.24
74544;BME280;63016;55.030;38.710;2024-03-25T04:54:23;98715.19;;;5.36;60.89
74544;BME280;63016;55.030;38.710;2024-03-25T04:56:49;98721.50;;;5.34;60.70
74544;BME280;63016;55.030;38.710;2024-03-25T04:59:14;98724.56;;;5.37;61.13
74544;BME280;63016;55.030;38.710;2024-03-25T05:01:40;98733.94;;;5.38;61.51
74544;BME280;63016;55.030;38.710;2024-03-25T05:04:05;98737.50;;;5.37;61.56
74544;BME280;63016;55.030;38.710;2024-03-25T05:06:35;98729.56;;;5.39;61.31
74544;BME280;63016;55.030;38.710;2024-03-25T05:09:00;98737.50;;;5.46;61.10
74544;BME280;63016;55.030;38.710;2024-03-25T05:11:26;98738.16;;;5.48;61.23
74544;BME280;63016;55.030;38.710;2024-03-25T05:13:52;98729.41;;;5.49;61.44
74544;BME280;63016;55.030;38.710;2024-03-25T05:16:17;98738.47;;;5.53;61.19
74544;BME280;63016;55.030;38.710;2024-03-25T05:18:43;98738.31;;;5.54;61.28
74544;BME280;63016;55.030;38.710;2024-03-25T05:21:08;98738.81;;;5.58;61.22
74544;BME280;63016;55.030;38.710;2024-03-25T05:23:34;98730.88;;;5.59;61.11
74544;BME280;63016;55.030;38.710;2024-03-25T05:25:59;98735.72;;;5.62;61.33
74544;BME280;63016;55.030;38.710;2024-03-25T05:28:25;98745.75;;;5.65;61.47
74544;BME280;63016;55.030;38.710;2024-03-25T05:30:50;98750.09;;;5.65;60.98
74544;BME280;63016;55.030;38.710;2024-03-25T05:33:16;98765.63;;;5.65;61.00
74544;BME280;63016;55.030;38.710;2024-03-25T05:35:42;98761.78;;;5.61;60.74
74544;BME280;63016;55.030;38.710;2024-03-25T05:38:07;98760.63;;;5.63;60.53
74544;BME280;63016;55.030;38.710;2024-03-25T05:40:33;98756.75;;;5.59;60.95
74544;BME280;63016;55.030;38.710;2024-03-25T05:42:58;98765.31;;;5.60;61.03
74544;BME280;63016;55.030;38.710;2024-03-25T05:45:24;98755.63;;;5.54;60.86
74544;BME280;63016;55.030;38.710;2024-03-25T05:47:52;98760.47;;;5.57;60.77
74544;BME280;63016;55.030;38.710;2024-03-25T05:50:18;98772.94;;;5.61;60.83
74544;BME280;63016;55.030;38.710;2024-03-25T05:52:43;98771.97;;;5.62;61.14
74544;BME280;63016;55.030;38.710;2024-03-25T05:55:09;98773.88;;;5.60;60.96
74544;BME280;63016;55.030;38.710;2024-03-25T05:57:37;98770.97;;;5.55;60.57
74544;BME280;63016;55.030;38.710;2024-03-25T06:00:03;98787.16;;;5.65;61.53
74544;BME280;63016;55.030;38.710;2024-03-25T06:02:29;98789.72;;;5.65;60.72
74544;BME280;63016;55.030;38.710;2024-03-25T06:04:55;98776.47;;;5.60;61.00
74544;BME280;63016;55.030;38.710;2024-03-25T06:07:22;98799.94;;;5.67;60.83
74544;BME280;63016;55.030;38.710;2024-03-25T06:09:47;98809.16;;;5.70;61.42
74544;BME280;63016;55.030;38.710;2024-03-25T06:12:13;98809.97;;;5.70;61.28
74544;BME280;63016;55.030;38.710;2024-03-25T06:14:39;98828.41;;;5.75;61.55
74544;BME280;63016;55.030;38.710;2024-03-25T06:17:04;98835.03;;;5.78;61.34
74544;BME280;63016;55.030;38.710;2024-03-25T06:19:30;98832.47;;;5.78;61.08
74544;BME280;63016;55.030;38.710;2024-03-25T06:21:55;98838.59;;;5.77;60.64
74544;BME280;63016;55.030;38.710;2024-03-25T06:24:21;98833.25;;;5.78;60.47
74544;BME280;63016;55.030;38.710;2024-03-25T06:26:46;98847.19;;;5.77;60.76
74544;BME280;63016;55.030;38.710;2024-03-25T06:29:12;98860.75;;;5.79;61.03
74544;BME280;63016;55.030;38.710;2024-03-25T06:31:37;98865.00;;;5.80;61.17
74544;BME280;63016;55.030;38.710;2024-03-25T06:34:21;98867.25;;;5.83;60.72
74544;BME280;63016;55.030;38.710;2024-03-25T06:36:50;98864.00;;;5.81;61.20
74544;BME280;63016;55.030;38.710;2024-03-25T06:39:16;98863.22;;;5.81;60.84
74544;BME280;63016;55.030;38.710;2024-03-25T06:41:41;98866.75;;;5.88;60.87
74544;BME280;63016;55.030;38.710;2024-03-25T06:44:07;98867.44;;;5.90;61.20
74544;BME280;63016;55.030;38.710;2024-03-25T06:46:36;98869.88;;;5.91;60.97
74544;BME280;63016;55.030;38.710;2024-03-25T06:49:01;98881.84;;;5.92;60.56
74544;BME280;63016;55.030;38.710;2024-03-25T06:51:27;98882.66;;;5.93;60.88
74544;BME280;63016;55.030;38.710;2024-03-25T06:53:52;98884.13;;;5.96;61.10
74544;BME280;63016;55.030;38.710;2024-03-25T06:56:18;98878.78;;;5.97;61.11
74544;BME280;63016;55.030;38.710;2024-03-25T06:58:44;98881.84;;;6.01;60.70
74544;BME280;63016;55.030;38.710;2024-03-25T07:01:10;98901.28;;;6.05;61.18
74544;BME280;63016;55.030;38.710;2024-03-25T07:03:38;98884.09;;;6.04;60.96
74544;BME280;63016;55.030;38.710;2024-03-25T07:06:04;98895.13;;;6.14;60.76
74544;BME280;63016;55.030;38.710;2024-03-25T07:08:30;98897.56;;;6.15;60.50
74544;BME280;63016;55.030;38.710;2024-03-25T07:10:56;98900.94;;;6.08;61.00
74544;BME280;63016;55.030;38.710;2024-03-25T07:13:22;98917.63;;;6.22;60.63
74544;BME280;63016;55.030;38.710;2024-03-25T07:15:48;98923.31;;;6.25;61.43
74544;BME280;63016;55.030;38.710;2024-03-25T07:18:14;98926.84;;;6.32;61.61
74544;BME280;63016;55.030;38.710;2024-03-25T07:20:40;98931.25;;;6.40;61.03
74544;BME280;63016;55.030;38.710;2024-03-25T07:23:06;98927.00;;;6.47;61.69
74544;BME280;63016;55.030;38.710;2024-03-25T07:25:32;98951.97;;;6.56;61.42
74544;BME280;63016;55.030;38.710;2024-03-25T07:27:57;98940.13;;;6.62;61.54
74544;BME280;63016;55.030;38.710;2024-03-25T07:30:23;98942.22;;;6.66;61.24
74544;BME280;63016;55.030;38.710;2024-03-25T07:32:52;98941.91;;;6.69;60.87
74544;BME280;63016;55.030;38.710;2024-03-25T07:35:18;98942.06;;;6.76;61.14
74544;BME280;63016;55.030;38.710;2024-03-25T07:37:44;98938.16;;;6.80;60.77
74544;BME280;63016;55.030;38.710;2024-03-25T07:40:10;98947.06;;;6.86;61.22
74544;BME280;63016;55.030;38.710;2024-03-25T07:42:40;98939.28;;;6.86;61.44
74544;BME280;63016;55.030;38.710;2024-03-25T07:45:06;98940.44;;;6.91;61.34
74544;BME280;63016;55.030;38.710;2024-03-25T07:47:34;98941.56;;;6.97;60.88
74544;BME280;63016;55.030;38.710;2024-03-25T07:50:00;98954.03;;;7.02;61.20
74544;BME280;63016;55.030;38.710;2024-03-25T07:52:27;98962.25;;;7.05;61.82
74544;BME280;63016;55.030;38.710;2024-03-25T07:54:53;98961.44;;;7.05;60.91
74544;BME280;63016;55.030;38.710;2024-03-25T07:57:18;98958.72;;;7.06;60.71
74544;BME280;63016;55.030;38.710;2024-03-25T07:59:47;98960.63;;;7.12;61.32
74544;BME280;63016;55.030;38.710;2024-03-25T08:02:12;98966.44;;;7.14;60.72
74544;BME280;63016;55.030;38.710;2024-03-25T08:04:38;98973.25;;;7.15;60.72
74544;BME280;63016;55.030;38.710;2024-03-25T08:07:04;98959.03;;;7.11;60.92
74544;BME280;63016;55.030;38.710;2024-03-25T08:09:29;98966.31;;;7.16;60.96
74544;BME280;63016;55.030;38.710;2024-03-25T08:11:55;98969.84;;;7.23;61.24
74544;BME280;63016;55.030;38.710;2024-03-25T08:14:21;98972.25;;;7.25;60.64
74544;BME280;63016;55.030;38.710;2024-03-25T08:16:46;98977.75;;;7.30;61.21
74544;BME280;63016;55.030;38.710;2024-03-25T08:19:12;98983.59;;;7.32;60.32
74544;BME280;63016;55.030;38.710;2024-03-25T08:21:37;98984.25;;;7.34;60.78
74544;BME280;63016;55.030;38.710;2024-03-25T08:24:03;98987.00;;;7.32;61.06
74544;BME280;63016;55.030;38.710;2024-03-25T08:26:29;98989.75;;;7.39;60.76
74544;BME280;63016;55.030;38.710;2024-03-25T08:28:54;98979.03;;;7.42;61.49
74544;BME280;63016;55.030;38.710;2024-03-25T08:31:20;98975.94;;;7.46;61.57
74544;BME280;63016;55.030;38.710;2024-03-25T08:33:45;98970.72;;;7.55;62.02
74544;BME280;63016;55.030;38.710;2024-03-25T08:36:11;98971.84;;;7.60;61.12
74544;BME280;63016;55.030;38.710;2024-03-25T08:38:37;98982.81;;;7.70;60.83
74544;BME280;63016;55.030;38.710;2024-03-25T08:41:02;98975.66;;;7.72;61.17
74544;BME280;63016;55.030;38.710;2024-03-25T08:43:28;98979.72;;;7.75;60.74
74544;BME280;63016;55.030;38.710;2024-03-25T08:45:53;98977.94;;;7.76;60.51
74544;BME280;63016;55.030;38.710;2024-03-25T08:48:19;98967.88;;;7.72;60.91
74544;BME280;63016;55.030;38.710;2024-03-25T08:50:44;98990.56;;;7.79;60.84
74544;BME280;63016;55.030;38.710;2024-03-25T08:53:10;99002.41;;;7.81;60.48
74544;BME280;63016;55.030;38.710;2024-03-25T08:55:35;99009.22;;;7.82;60.20
74544;BME280;63016;55.030;38.710;2024-03-25T08:58:01;99007.88;;;7.86;60.82
74544;BME280;63016;55.030;38.710;2024-03-25T09:00:27;99016.16;;;7.90;61.25
74544;BME280;63016;55.030;38.710;2024-03-25T09:02:53;99021.31;;;7.98;61.01
74544;BME280;63016;55.030;38.710;2024-03-25T09:05:19;99007.34;;;7.99;61.52
74544;BME280;63016;55.030;38.710;2024-03-25T09:07:51;99020.53;;;8.20;61.52
74544;BME280;63016;55.030;38.710;2024-03-25T09:10:18;99028.75;;;8.32;61.66
74544;BME280;63016;55.030;38.710;2024-03-25T09:13:02;99033.88;;;8.48;62.02
74544;BME280;63016;55.030;38.710;2024-03-25T09:15:29;99029.06;;;8.60;61.50
74544;BME280;63016;55.030;38.710;2024-03-25T09:17:54;99035.31;;;8.74;61.27
74544;BME280;63016;55.030;38.710;2024-03-25T09:20:20;99032.94;;;8.87;61.82
74544;BME280;63016;55.030;38.710;2024-03-25T09:22:46;99033.16;;;9.00;61.70
74544;BME280;63016;55.030;38.710;2024-03-25T09:25:14;99032.44;;;9.07;61.50
74544;BME280;63016;55.030;38.710;2024-03-25T09:27:39;99034.25;;;9.21;62.14
74544;BME280;63016;55.030;38.710;2024-03-25T09:30:07;99030.41;;;9.32;61.64
74544;BME280;63016;55.030;38.710;2024-03-25T09:32:34;99033.75;;;9.40;61.61
74544;BME280;63016;55.030;38.710;2024-03-25T09:35:00;99039.50;;;9.50;61.07
74544;BME280;63016;55.030;38.710;2024-03-25T09:37:26;99040.81;;;9.76;64.11
74544;BME280;63016;55.030;38.710;2024-03-25T09:39:52;99046.03;;;10.63;65.40
74544;BME280;63016;55.030;38.710;2024-03-25T09:42:48;99037.31;;;11.90;61.59
74544;BME280;63016;55.030;38.710;2024-03-25T09:45:16;99041.63;;;11.76;59.95
74544;BME280;63016;55.030;38.710;2024-03-25T09:47:46;99031.41;;;11.46;59.84
74544;BME280;63016;55.030;38.710;2024-03-25T09:50:13;99032.72;;;11.29;59.54
74544;BME280;63016;55.030;38.710;2024-03-25T09:52:44;99034.84;;;11.19;59.73
74544;BME280;63016;55.030;38.710;2024-03-25T09:55:10;99034.75;;;11.05;59.52
74544;BME280;63016;55.030;38.710;2024-03-25T09:57:35;99033.28;;;10.96;59.16
74544;BME280;63016;55.030;38.710;2024-03-25T10:00:02;99054.53;;;10.93;59.43
74544;BME280;63016;55.030;38.710;2024-03-25T10:02:29;99057.09;;;10.87;59.57
74544;BME280;63016;55.030;38.710;2024-03-25T10:04:56;99050.22;;;10.79;59.45
74544;BME280;63016;55.030;38.710;2024-03-25T10:07:22;99045.97;;;10.78;59.63
74544;BME280;63016;55.030;38.710;2024-03-25T10:09:49;99056.22;;;10.79;60.24
74544;BME280;63016;55.030;38.710;2024-03-25T10:12:15;99060.88;;;10.84;59.97
74544;BME280;63016;55.030;38.710;2024-03-25T10:14:41;99048.41;;;10.79;59.58
74544;BME280;63016;55.030;38.710;2024-03-25T10:17:06;99050.63;;;10.82;59.74
74544;BME280;63016;55.030;38.710;2024-03-25T10:19:35;99051.63;;;10.81;59.35
74544;BME280;63016;55.030;38.710;2024-03-25T10:22:09;99054.63;;;10.78;58.64
74544;BME280;63016;55.030;38.710;2024-03-25T10:24:44;99057.78;;;10.74;59.21
74544;BME280;63016;55.030;38.710;2024-03-25T10:27:23;99047.09;;;10.69;58.52
74544;BME280;63016;55.030;38.710;2024-03-25T10:29:53;99038.63;;;10.67;58.80
74544;BME280;63016;55.030;38.710;2024-03-25T10:32:21;99039.28;;;10.69;59.35
74544;BME280;63016;55.030;38.710;2024-03-25T10:34:47;99042.69;;;10.69;59.65
74544;BME280;63016;55.030;38.710;2024-03-25T10:37:14;99034.06;;;10.69;59.21
74544;BME280;63016;55.030;38.710;2024-03-25T10:39:48;99029.56;;;10.63;58.90
74544;BME280;63016;55.030;38.710;2024-03-25T10:42:15;99038.63;;;10.67;59.31
74544;BME280;63016;55.030;38.710;2024-03-25T10:44:43;99042.84;;;10.68;59.38
74544;BME280;63016;55.030;38.710;2024-03-25T10:47:14;99046.47;;;10.67;58.86
74544;BME280;63016;55.030;38.710;2024-03-25T10:49:51;99054.38;;;10.73;59.02
74544;BME280;63016;55.030;38.710;2024-03-25T10:52:20;99053.78;;;10.78;59.19
74544;BME280;63016;55.030;38.710;2024-03-25T10:54:47;99049.81;;;10.82;59.36
74544;BME280;63016;55.030;38.710;2024-03-25T10:57:13;99043.44;;;10.85;59.79
74544;BME280;63016;55.030;38.710;2024-03-25T10:59:41;99042.91;;;10.96;59.40
74544;BME280;63016;55.030;38.710;2024-03-25T11:02:08;99054.78;;;10.98;59.28
74544;BME280;63016;55.030;38.710;2024-03-25T11:04:34;99044.16;;;11.00;59.32
74544;BME280;63016;55.030;38.710;2024-03-25T11:07:11;99056.03;;;11.02;59.09
74544;BME280;63016;55.030;38.710;2024-03-25T11:09:37;99062.06;;;11.03;59.29
74544;BME280;63016;55.030;38.710;2024-03-25T11:12:03;99054.03;;;11.04;59.38
74544;BME280;63016;55.030;38.710;2024-03-25T11:14:29;99060.66;;;11.07;58.76
74544;BME280;63016;55.030;38.710;2024-03-25T11:16:57;99062.09;;;11.10;58.77
74544;BME280;63016;55.030;38.710;2024-03-25T11:19:33;99056.06;;;11.09;58.13
74544;BME280;63016;55.030;38.710;2024-03-25T11:22:10;99059.13;;;11.13;58.24
74544;BME280;63016;55.030;38.710;2024-03-25T11:24:36;99054.47;;;11.08;58.82
74544;BME280;63016;55.030;38.710;2024-03-25T11:27:05;99064.94;;;11.15;59.30
74544;BME280;63016;55.030;38.710;2024-03-25T11:29:32;99052.00;;;11.06;58.86
74544;BME280;63016;55.030;38.710;2024-03-25T11:32:00;99064.34;;;11.13;58.52
74544;BME280;63016;55.030;38.710;2024-03-25T11:34:28;99062.69;;;11.12;58.76
74544;BME280;63016;55.030;38.710;2024-03-25T11:36:55;99084.22;;;11.14;59.02
74544;BME280;63016;55.030;38.710;2024-03-25T11:39:23;99089.03;;;11.17;58.78
74544;BME280;63016;55.030;38.710;2024-03-25T11:41:49;99062.06;;;11.03;58.76
74544;BME280;63016;55.030;38.710;2024-03-25T11:44:14;99083.81;;;11.17;59.03
74544;BME280;63016;55.030;38.710;2024-03-25T11:46:42;99084.81;;;11.16;58.87
74544;BME280;63016;55.030;38.710;2024-03-25T11:49:15;99083.81;;;11.17;58.37
74544;BME280;63016;55.030;38.710;2024-03-25T11:51:44;99069.00;;;11.17;58.60
74544;BME280;63016;55.030;38.710;2024-03-25T11:54:11;99077.44;;;11.19;58.63
74544;BME280;63016;55.030;38.710;2024-03-25T11:56:37;99087.88;;;11.19;58.25
74544;BME280;63016;55.030;38.710;2024-03-25T11:59:06;99068.06;;;11.03;58.14
74544;BME280;63016;55.030;38.710;2024-03-25T12:01:33;99094.88;;;11.12;58.12
74544;BME280;63016;55.030;38.710;2024-03-25T12:04:18;99055.97;;;10.96;58.65
74544;BME280;63016;55.030;38.710;2024-03-25T12:06:47;99079.94;;;11.06;57.96
74544;BME280;63016;55.030;38.710;2024-03-25T12:09:13;99090.38;;;11.06;58.05
74544;BME280;63016;55.030;38.710;2024-03-25T12:11:57;99092.94;;;10.99;57.98
74544;BME280;63016;55.030;38.710;2024-03-25T12:14:23;99096.16;;;11.01;58.31
74544;BME280;63016;55.030;38.710;2024-03-25T12:16:49;99096.56;;;10.98;58.38
74544;BME280;63016;55.030;38.710;2024-03-25T12:19:16;99097.34;;;10.99;58.33
74544;BME280;63016;55.030;38.710;2024-03-25T12:21:43;99056.97;;;10.73;57.97
74544;BME280;63016;55.030;38.710;2024-03-25T12:24:09;99058.94;;;10.71;58.02
74544;BME280;63016;55.030;38.710;2024-03-25T12:26:36;99099.72;;;10.94;58.00
74544;BME280;63016;55.030;38.710;2024-03-25T12:29:02;99044.84;;;10.66;58.30
74544;BME280;63016;55.030;38.710;2024-03-25T12:31:29;99096.66;;;10.90;57.99
74544;BME280;63016;55.030;38.710;2024-03-25T12:33:56;99081.50;;;10.79;58.03
74544;BME280;63016;55.030;38.710;2024-03-25T12:36:22;99054.41;;;10.59;57.65
74544;BME280;63016;55.030;38.710;2024-03-25T12:38:57;99081.63;;;10.71;57.14
74544;BME280;63016;55.030;38.710;2024-03-25T12:41:23;99086.00;;;10.64;57.35
74544;BME280;63016;55.030;38.710;2024-03-25T12:43:50;99067.59;;;10.50;56.88
74544;BME280;63016;55.030;38.710;2024-03-25T12:46:16;99076.91;;;10.60;57.30
74544;BME280;63016;55.030;38.710;2024-03-25T12:48:42;99054.41;;;10.37;57.51
74544;BME280;63016;55.030;38.710;2024-03-25T12:51:15;99068.69;;;10.41;57.31
74544;BME280;63016;55.030;38.710;2024-03-25T12:53:41;99100.75;;;10.57;57.48
74544;BME280;63016;55.030;38.710;2024-03-25T12:56:07;99098.88;;;10.50;57.67